Time;durP1;ratioP1;P1;durP2;ratioP2;P2;SDS_P1;SDS_P2;PMS_P1;PMS_P2;Temp;Humidity;BMP_temperature;BMP_pressure;BME280_temperature;BME280_humidity;BME280_pressure;Samples;Min_cycle;Max_cycle;Signal;HPM_P1;HPM_P2
2022/12/25 00:01:35;;;;;;;14.45;9.60;;;;;;;9.87;65.84;99454.69;5106210;28;20044;-76
2022/12/25 00:04:02;;;;;;;11.80;7.40;;;;;;;9.90;65.63;99449.25;5105028;28;20051;-75
2022/12/25 00:06:30;;;;;;;11.20;6.75;;;;;;;9.95;65.44;99455.16;5105977;28;20152;-75
2022/12/25 00:08:57;;;;;;;21.38;10.85;;;;;;;9.99;65.18;99457.66;5106030;28;20107;-76
2022/12/25 00:11:24;;;;;;;24.25;12.93;;;;;;;10.00;65.23;99456.72;5105623;28;20058;-75
2022/12/25 00:13:50;;;;;;;21.00;10.93;;;;;;;9.99;65.38;99447.06;5106203;28;20047;-76
2022/12/25 00:16:20;;;;;;;12.95;6.68;;;;;;;9.52;65.13;99365.66;5105982;28;20040;-76
2022/12/25 00:18:50;;;;;;;10.40;5.72;;;;;;;9.39;65.18;99338.94;5105851;28;20058;-76
2022/12/25 00:21:17;;;;;;;24.70;11.93;;;;;;;9.54;65.47;99369.06;5104758;28;20081;-76
2022/12/25 00:23:46;;;;;;;14.27;7.70;;;;;;;9.22;65.22;99313.31;5105434;28;20050;-76
2022/12/25 00:26:15;;;;;;;16.52;9.80;;;;;;;10.06;65.28;99444.03;5105662;28;20127;-75
2022/12/25 00:28:41;;;;;;;9.07;4.93;;;;;;;10.02;65.11;99447.75;5104499;28;20035;-75
2022/12/25 00:31:10;;;;;;;8.25;2.95;;;;;;;9.99;65.18;99453.22;5104133;28;20292;-76
2022/12/25 00:33:37;;;;;;;6.07;3.33;;;;;;;9.97;65.11;99454.22;5105148;28;20048;-76
2022/12/25 00:36:06;;;;;;;5.25;2.53;;;;;;;9.94;65.26;99456.09;5105630;28;20276;-75
2022/12/25 00:38:33;;;;;;;4.78;2.85;;;;;;;9.92;65.20;99465.91;5105363;28;20304;-76
2022/12/25 00:41:05;;;;;;;5.60;3.05;;;;;;;9.90;65.11;99474.88;5107380;28;20312;-75
2022/12/25 00:43:31;;;;;;;5.07;3.40;;;;;;;9.89;65.16;99474.00;5112191;28;20067;-76
2022/12/25 00:46:00;;;;;;;7.13;2.83;;;;;;;9.91;65.19;99476.56;5112355;28;20047;-75
2022/12/25 00:48:28;;;;;;;5.57;3.13;;;;;;;9.89;65.33;99476.66;5111983;28;20085;-75
2022/12/25 00:50:55;;;;;;;5.55;3.30;;;;;;;9.89;65.50;99483.75;5112254;28;20081;-75
2022/12/25 00:53:23;;;;;;;4.35;2.60;;;;;;;9.65;65.71;99456.72;5112452;28;20040;-75
2022/12/25 00:55:53;;;;;;;5.65;3.25;;;;;;;9.86;65.47;99490.03;5112249;28;20107;-76
2022/12/25 00:58:22;;;;;;;8.15;3.00;;;;;;;9.33;65.36;99410.66;5112427;28;20180;-75
2022/12/25 01:00:49;;;;;;;4.32;2.85;;;;;;;9.64;65.57;99449.69;5112384;28;20192;-75
2022/12/25 01:03:19;;;;;;;5.88;3.42;;;;;;;9.11;65.28;99388.78;5112195;28;20089;-76
2022/12/25 01:05:55;;;;;;;41.25;25.30;;;;;;;9.29;65.38;99424.94;5111485;28;20090;-76
2022/12/25 01:08:22;;;;;;;35.42;21.85;;;;;;;9.82;65.54;99493.78;5111213;28;20067;-76
2022/12/25 01:10:53;;;;;;;47.05;28.70;;;;;;;9.75;65.59;99480.94;5111016;28;20044;-75
2022/12/25 01:13:22;;;;;;;22.60;13.48;;;;;;;9.78;65.43;99484.28;5111895;28;20070;-75
2022/12/25 01:15:50;;;;;;;11.55;5.57;;;;;;;9.77;65.64;99484.34;5111952;28;20040;-75
2022/12/25 01:18:18;;;;;;;6.30;3.72;;;;;;;9.77;65.68;99485.22;5111969;28;20043;-75
2022/12/25 01:20:44;;;;;;;7.80;3.15;;;;;;;9.73;65.54;99473.06;5112209;28;20048;-75
2022/12/25 01:23:11;;;;;;;6.20;2.80;;;;;;;9.74;65.52;99479.22;5111331;28;20051;-75
2022/12/25 01:25:38;;;;;;;6.28;3.15;;;;;;;8.70;65.80;99315.00;5112251;28;20044;-75
2022/12/25 01:28:05;;;;;;;4.30;2.65;;;;;;;9.37;65.94;99440.44;5112357;28;20044;-75
2022/12/25 01:30:34;;;;;;;4.63;2.58;;;;;;;9.68;65.98;99490.09;5112238;28;20055;-75
2022/12/25 01:33:01;;;;;;;6.93;2.75;;;;;;;9.65;66.11;99479.66;5110807;28;20052;-75
2022/12/25 01:35:27;;;;;;;5.30;3.10;;;;;;;9.61;66.18;99474.53;5112112;28;20044;-75
2022/12/25 01:37:54;;;;;;;5.68;2.92;;;;;;;9.59;66.24;99475.53;5110937;28;20044;-75
2022/12/25 01:40:21;;;;;;;4.90;2.83;;;;;;;9.59;66.17;99484.34;5111694;28;20040;-75
2022/12/25 01:42:48;;;;;;;6.72;3.03;;;;;;;9.58;66.23;99481.75;5112213;28;20044;-76
2022/12/25 01:45:35;;;;;;;5.28;3.65;;;;;;;9.57;66.02;99490.63;5094118;28;20046;-76
2022/12/25 01:48:06;;;;;;;12.60;9.38;;;;;;;9.56;66.50;99494.22;5111029;28;20048;-75
2022/12/25 01:50:36;;;;;;;8.38;6.18;;;;;;;9.21;66.54;99433.25;5111635;28;20051;-75
2022/12/25 01:53:04;;;;;;;8.60;4.53;;;;;;;9.00;66.13;99403.38;5109338;28;20146;-75
2022/12/25 01:55:32;;;;;;;6.20;4.45;;;;;;;9.54;66.27;99498.72;5109051;28;20085;-75
2022/12/25 01:57:59;;;;;;;4.57;2.90;;;;;;;9.54;66.17;99499.56;5108298;28;20051;-74
2022/12/25 02:00:25;;;;;;;5.90;2.70;;;;;;;9.06;66.06;99411.97;5091328;28;20212;-74
2022/12/25 02:02:54;;;;;;;17.42;10.13;;;;;;;9.55;66.24;99498.66;5108955;28;20051;-75
2022/12/25 02:05:25;;;;;;;9.82;5.40;;;;;;;9.56;66.10;99504.78;5108233;28;20058;-75
2022/12/25 02:07:53;;;;;;;4.85;2.55;;;;;;;9.39;65.92;99471.19;5108390;28;20097;-75
2022/12/25 02:10:21;;;;;;;5.47;2.28;;;;;;;9.12;65.95;99422.22;5108287;28;20048;-75
2022/12/25 02:12:48;;;;;;;5.50;2.60;;;;;;;9.59;65.85;99507.28;5108322;28;20284;-75
2022/12/25 02:15:20;;;;;;;5.13;2.17;;;;;;;9.59;65.61;99499.34;5107250;28;20050;-75
2022/12/25 02:17:57;;;;;;;9.05;3.40;;;;;;;9.58;65.61;99505.56;5108015;28;20246;-75
2022/12/25 02:20:46;;;;;;;4.57;2.55;;;;;;;9.57;65.40;99512.66;5108193;28;20315;-75
2022/12/25 02:23:33;;;;;;;3.65;2.28;;;;;;;9.57;65.47;99504.72;5108170;28;20040;-75
2022/12/25 02:26:16;;;;;;;5.07;3.25;;;;;;;9.57;65.44;99495.91;5108222;28;20044;-75
2022/12/25 02:28:51;;;;;;;8.25;4.53;;;;;;;9.57;65.45;99511.78;5108097;28;20204;-75
2022/12/25 02:31:20;;;;;;;;;;;;;;;9.51;65.41;99510.31;5107389;28;20297;-74
2022/12/25 02:34:04;;;;;;;10.77;4.82;;;;;;;9.52;65.54;99514.66;5107339;28;19935;-75
2022/12/25 02:36:41;;;;;;;13.05;5.63;;;;;;;9.52;65.74;99506.72;5107903;28;20292;-74
2022/12/25 02:42:02;;;;;;;6.35;3.95;;;;;;;9.53;65.67;99511.09;5107082;28;20040;-75
2022/12/25 03:07:01;;;;;;;23.23;19.85;;;;;;;9.43;66.66;99512.47;5106933;28;20119;-75
2022/12/25 03:12:29;;;;;;;10.10;7.57;;;;;;;8.07;66.85;99297.75;5107237;28;20329;-75
2022/12/25 03:17:42;;;;;;;9.18;5.03;;;;;;;9.36;67.35;99512.78;5106983;28;20386;-75
2022/12/25 03:28:22;;;;;;;18.77;11.17;;;;;;;9.32;68.14;99541.19;5106430;28;20060;-75
2022/12/25 03:31:12;;;;;;;26.85;19.35;;;;;;;9.33;68.45;99534.97;5106666;28;20062;-75
2022/12/25 04:38:31;;;;;;;5.95;2.50;;;;;;;9.10;67.60;99522.78;5107171;28;20040;-75
2022/12/25 04:40:59;;;;;;;4.38;2.50;;;;;;;9.11;67.66;99526.28;5106169;28;20044;-74
2022/12/25 04:43:25;;;;;;;4.60;2.38;;;;;;;9.12;67.68;99528.00;5105496;28;20062;-74
2022/12/25 04:45:53;;;;;;;4.20;2.50;;;;;;;9.10;67.58;99535.13;5106270;28;20036;-75
2022/12/25 04:48:20;;;;;;;4.45;2.20;;;;;;;8.87;67.59;99500.06;5104995;28;20036;-75
2022/12/25 04:50:47;;;;;;;3.90;2.33;;;;;;;8.89;67.67;99498.19;5105861;28;20044;-75
2022/12/25 04:53:14;;;;;;;3.90;2.53;;;;;;;9.11;67.76;99540.34;5105508;28;20051;-75
2022/12/25 04:55:40;;;;;;;3.58;2.25;;;;;;;9.10;67.78;99538.66;5104678;28;20048;-75
2022/12/25 04:58:09;;;;;;;5.28;2.42;;;;;;;9.08;68.00;99539.66;5104935;28;20032;-75
2022/12/25 05:00:36;;;;;;;4.75;2.97;;;;;;;9.05;67.94;99538.00;5104891;28;20047;-75
2022/12/25 05:03:03;;;;;;;5.25;2.75;;;;;;;8.84;68.01;99502.84;5105637;28;20048;-75
2022/12/25 05:05:29;;;;;;;6.07;3.33;;;;;;;9.05;68.05;99535.34;5105724;28;20044;-75
2022/12/25 05:07:57;;;;;;;4.97;3.17;;;;;;;9.03;67.90;99545.16;5105827;28;20036;-74
2022/12/25 05:10:24;;;;;;;5.75;3.10;;;;;;;9.02;68.28;99538.13;5105815;28;20047;-74
2022/12/25 05:12:51;;;;;;;4.95;2.72;;;;;;;8.99;68.14;99533.00;5106046;28;20050;-74
2022/12/25 05:15:19;;;;;;;5.28;2.72;;;;;;;8.97;68.23;99540.13;5104530;28;20046;-74
2022/12/25 05:17:46;;;;;;;4.78;3.17;;;;;;;8.72;68.36;99503.38;5105577;28;20040;-74
2022/12/25 05:20:13;;;;;;;4.97;2.72;;;;;;;8.91;68.48;99525.41;5106260;28;20048;-74
2022/12/25 05:22:41;;;;;;;4.68;2.83;;;;;;;8.88;68.53;99532.63;5104981;28;20296;-74
2022/12/25 05:25:10;;;;;;;4.65;2.60;;;;;;;8.87;68.60;99526.47;5105742;28;20043;-74
2022/12/25 05:27:37;;;;;;;4.88;2.88;;;;;;;8.85;68.77;99524.84;5104436;28;20086;-74
2022/12/25 05:30:04;;;;;;;4.80;2.75;;;;;;;8.66;68.63;99504.53;5110277;28;20102;-74
2022/12/25 05:32:33;;;;;;;5.28;2.92;;;;;;;8.85;68.73;99533.63;5109970;28;20051;-74
2022/12/25 05:34:59;;;;;;;6.85;3.17;;;;;;;8.85;68.56;99536.25;5109578;28;20042;-74
2022/12/25 05:37:26;;;;;;;7.97;3.15;;;;;;;8.86;68.72;99529.19;5110449;28;20043;-75
2022/12/25 05:39:53;;;;;;;6.38;3.05;;;;;;;8.85;68.80;99540.69;5108835;28;20181;-75
2022/12/25 05:42:20;;;;;;;6.93;2.95;;;;;;;8.84;68.78;99528.41;5109063;28;20235;-74
2022/12/25 05:44:47;;;;;;;7.07;3.20;;;;;;;8.82;68.67;99535.53;5109078;28;20052;-74
2022/12/25 05:47:13;;;;;;;6.10;3.00;;;;;;;8.78;68.74;99526.91;5108952;28;20085;-74
2022/12/25 05:49:42;;;;;;;5.88;3.00;;;;;;;8.33;68.79;99458.47;5109255;28;20235;-74
2022/12/25 05:52:09;;;;;;;4.75;2.80;;;;;;;8.59;68.73;99496.94;5109170;28;20036;-74
2022/12/25 05:54:36;;;;;;;5.40;3.30;;;;;;;8.76;68.71;99535.81;5108642;28;20048;-74
2022/12/25 05:57:03;;;;;;;7.47;2.97;;;;;;;8.74;68.76;99529.75;5109158;28;20055;-74
2022/12/25 05:59:31;;;;;;;4.70;2.75;;;;;;;8.54;68.79;99507.72;5108837;28;20055;-74
2022/12/25 06:01:58;;;;;;;4.43;3.33;;;;;;;8.71;68.89;99532.53;5090795;28;20113;-74
2022/12/25 06:04:25;;;;;;;5.38;3.03;;;;;;;8.73;68.81;99554.47;5108447;28;20181;-74
2022/12/25 06:06:53;;;;;;;7.47;3.63;;;;;;;8.72;68.93;99532.47;5107790;28;20315;-74
2022/12/25 06:09:20;;;;;;;7.30;3.60;;;;;;;8.72;68.92;99547.44;5107384;28;20046;-74
2022/12/25 06:11:47;;;;;;;4.85;3.22;;;;;;;8.72;68.85;99545.66;5107443;28;20040;-74
2022/12/25 06:14:15;;;;;;;5.13;3.28;;;;;;;8.60;68.75;99522.44;5108490;28;20199;-74
2022/12/25 06:16:42;;;;;;;5.70;3.60;;;;;;;8.71;68.81;99551.03;5108757;28;20048;-74
2022/12/25 06:19:09;;;;;;;6.68;4.30;;;;;;;8.70;68.93;99554.59;5108467;28;20197;-74
2022/12/25 06:21:36;;;;;;;6.47;3.47;;;;;;;8.52;69.16;99535.97;5107338;28;20097;-74
2022/12/25 06:24:05;;;;;;;5.88;3.55;;;;;;;8.57;69.40;99541.91;5090871;28;20063;-74
2022/12/25 06:26:32;;;;;;;6.68;3.55;;;;;;;8.08;68.96;99457.84;5107428;28;20048;-74
2022/12/25 06:28:58;;;;;;;6.38;3.63;;;;;;;8.73;69.02;99568.53;5108084;28;20313;-74
2022/12/25 06:31:25;;;;;;;5.75;4.20;;;;;;;8.73;69.06;99572.94;5106918;28;20060;-74
2022/12/25 06:33:52;;;;;;;5.28;3.65;;;;;;;8.71;69.04;99575.66;5107014;28;20036;-74
2022/12/25 06:36:24;;;;;;;6.32;3.72;;;;;;;8.69;69.17;99574.88;5107869;28;20098;-74
2022/12/25 06:38:51;;;;;;;7.95;3.72;;;;;;;8.67;69.27;99571.44;5106401;28;20075;-74
2022/12/25 06:41:21;;;;;;;6.07;4.03;;;;;;;8.63;69.46;99557.50;5108008;28;20051;-75
2022/12/25 06:43:49;;;;;;;10.10;3.83;;;;;;;8.62;69.64;99569.00;5108257;28;20048;-74
2022/12/25 06:46:16;;;;;;;8.90;4.70;;;;;;;8.61;69.86;99571.72;5107439;28;20047;-74
2022/12/25 06:48:46;;;;;;;6.82;3.50;;;;;;;8.61;69.74;99579.63;5106706;28;20043;-74
2022/12/25 06:51:14;;;;;;;11.20;4.22;;;;;;;7.96;69.80;99478.56;5107759;28;20043;-74
2022/12/25 06:53:40;;;;;;;6.03;3.90;;;;;;;8.59;69.99;99584.13;5107190;28;20097;-74
2022/12/25 06:56:14;;;;;;;5.95;4.00;;;;;;;8.59;69.88;99592.91;5107356;28;20044;-75
2022/12/25 06:58:42;;;;;;;8.25;3.88;;;;;;;8.57;70.09;99602.69;5106798;28;20035;-75
2022/12/25 07:01:13;;;;;;;7.22;4.55;;;;;;;8.55;70.04;99607.16;5107306;28;20048;-74
2022/12/25 07:03:42;;;;;;;7.25;4.43;;;;;;;8.51;70.21;99604.72;5107314;28;20048;-74
2022/12/25 07:06:09;;;;;;;6.47;4.28;;;;;;;8.50;70.41;99606.50;5106319;28;20043;-74
2022/12/25 07:08:36;;;;;;;6.45;4.97;;;;;;;8.31;70.36;99585.31;5106877;28;20044;-74
2022/12/25 07:11:03;;;;;;;9.88;4.22;;;;;;;8.52;70.46;99622.28;5106323;28;20046;-74
2022/12/25 07:13:30;;;;;;;6.70;4.45;;;;;;;8.51;70.51;99620.56;5107675;28;20047;-74
2022/12/25 07:15:58;;;;;;;8.02;4.22;;;;;;;8.52;70.49;99624.94;5107258;28;20233;-74
2022/12/25 07:18:25;;;;;;;4.80;3.50;;;;;;;8.51;70.58;99632.00;5106077;28;20044;-74
2022/12/25 07:20:54;;;;;;;6.50;4.32;;;;;;;8.54;70.67;99618.66;5107178;28;20040;-74
2022/12/25 07:23:21;;;;;;;6.57;4.43;;;;;;;8.56;70.71;99614.19;5105995;28;20044;-74
2022/12/25 07:25:54;;;;;;;7.43;3.83;;;;;;;8.34;70.74;99582.53;5107021;28;20044;-74
2022/12/25 07:28:21;;;;;;;4.45;3.47;;;;;;;8.58;70.47;99635.25;5106686;28;20043;-74
2022/12/25 07:30:48;;;;;;;5.90;4.00;;;;;;;8.59;70.54;99640.47;5106752;28;20296;-74
2022/12/25 07:33:16;;;;;;;7.20;4.97;;;;;;;8.59;70.64;99642.25;5106725;28;20060;-74
2022/12/25 07:35:44;;;;;;;7.80;5.00;;;;;;;8.60;70.66;99646.59;5107230;28;20044;-74
2022/12/25 07:38:11;;;;;;;6.78;4.65;;;;;;;8.60;70.76;99647.47;5106873;28;20040;-74
2022/12/25 07:40:38;;;;;;;7.20;4.30;;;;;;;8.05;70.97;99564.41;5106521;28;20137;-74
2022/12/25 07:43:05;;;;;;;9.20;5.55;;;;;;;8.61;71.14;99641.25;5106583;28;20050;-74
2022/12/25 07:45:32;;;;;;;7.35;4.32;;;;;;;8.64;70.97;99637.63;5106465;28;20055;-73
2022/12/25 07:47:58;;;;;;;7.35;4.82;;;;;;;8.65;71.08;99631.41;5106327;28;20092;-74
2022/12/25 07:50:27;;;;;;;8.38;4.88;;;;;;;8.66;70.88;99639.28;5105496;28;20188;-74
2022/12/25 07:52:53;;;;;;;7.28;4.78;;;;;;;8.66;71.07;99631.34;5105329;28;20308;-73
2022/12/25 07:55:20;;;;;;;9.00;5.53;;;;;;;8.66;71.01;99625.22;5106559;28;20314;-74
2022/12/25 07:57:47;;;;;;;8.07;4.75;;;;;;;8.67;70.89;99632.22;5106485;28;20040;-74
2022/12/25 08:00:15;;;;;;;9.68;5.55;;;;;;;8.69;70.84;99635.66;5106301;28;20347;-74
2022/12/25 08:02:41;;;;;;;6.88;4.85;;;;;;;8.73;70.80;99631.09;5105908;28;20085;-74
2022/12/25 08:05:09;;;;;;;7.93;5.28;;;;;;;8.78;70.51;99637.03;5106445;28;20097;-74
2022/12/25 08:07:37;;;;;;;9.45;4.60;;;;;;;8.77;70.51;99630.03;5105482;28;20082;-74
2022/12/25 08:10:04;;;;;;;7.05;4.60;;;;;;;8.78;70.46;99634.38;5105347;28;20040;-73
2022/12/25 08:12:31;;;;;;;7.32;5.00;;;;;;;8.79;70.40;99636.09;5105197;28;20035;-74
2022/12/25 08:14:57;;;;;;;8.18;4.78;;;;;;;8.25;70.45;99577.63;5105704;28;20248;-74
2022/12/25 08:17:24;;;;;;;8.48;5.25;;;;;;;8.04;70.37;99515.19;5106246;28;20051;-74
2022/12/25 08:19:51;;;;;;;10.82;5.22;;;;;;;8.80;70.23;99646.59;5106210;28;20331;-74
2022/12/25 08:22:18;;;;;;;6.53;4.55;;;;;;;8.81;70.13;99645.69;5105054;28;20054;-74
2022/12/25 08:24:46;;;;;;;6.20;4.65;;;;;;;8.84;70.20;99636.75;5106221;28;20044;-74
2022/12/25 08:27:13;;;;;;;8.20;5.40;;;;;;;8.84;70.20;99629.69;5104962;28;20036;-74
2022/12/25 08:29:39;;;;;;;8.93;5.70;;;;;;;8.77;70.05;99632.66;5105956;28;20046;-74
2022/12/25 08:32:06;;;;;;;8.88;5.85;;;;;;;8.87;69.96;99649.84;5105909;28;20082;-74
2022/12/25 08:34:33;;;;;;;8.77;5.28;;;;;;;8.67;69.96;99611.06;5104902;28;20047;-74
2022/12/25 08:36:59;;;;;;;7.57;4.95;;;;;;;8.89;70.02;99642.72;5105968;28;20044;-74
2022/12/25 08:39:26;;;;;;;9.50;6.45;;;;;;;8.88;69.87;99644.50;5105940;28;20050;-73
2022/12/25 08:41:55;;;;;;;8.95;4.82;;;;;;;8.90;69.96;99647.06;5105683;28;20052;-74
2022/12/25 08:44:21;;;;;;;8.50;5.18;;;;;;;8.91;70.11;99651.44;5106188;28;20036;-74
2022/12/25 08:46:48;;;;;;;7.05;4.82;;;;;;;8.91;69.86;99649.66;5105581;28;20035;-74
2022/12/25 08:49:15;;;;;;;8.65;6.20;;;;;;;8.89;69.85;99642.72;5106270;28;20181;-74
2022/12/25 08:51:44;;;;;;;12.65;7.43;;;;;;;8.72;69.88;99619.66;5104773;28;20043;-73
2022/12/25 08:54:11;;;;;;;7.55;5.75;;;;;;;8.90;70.01;99637.34;5105676;28;20254;-73
2022/12/25 08:56:38;;;;;;;10.68;7.05;;;;;;;8.73;69.97;99605.53;5104631;28;20043;-74
2022/12/25 08:59:06;;;;;;;9.57;5.60;;;;;;;8.95;69.86;99648.59;5105505;28;20032;-73
2022/12/25 09:01:33;;;;;;;10.65;5.75;;;;;;;8.97;70.02;99649.38;5105682;28;20307;-74
2022/12/25 09:04:00;;;;;;;10.15;6.22;;;;;;;8.97;69.81;99646.72;5108676;28;20043;-74
2022/12/25 09:06:26;;;;;;;7.72;5.72;;;;;;;8.98;69.96;99647.59;5109763;28;20056;-74
2022/12/25 09:08:53;;;;;;;9.90;6.63;;;;;;;8.95;69.85;99635.38;5108536;28;20036;-74
2022/12/25 09:11:20;;;;;;;7.47;6.10;;;;;;;9.02;69.85;99649.16;5109692;28;20059;-74
2022/12/25 09:13:48;;;;;;;12.15;7.10;;;;;;;8.29;69.92;99534.34;5109468;28;20089;-74
2022/12/25 09:16:19;;;;;;;9.90;6.82;;;;;;;9.06;70.01;99637.53;5109012;28;20362;-74
2022/12/25 09:18:46;;;;;;;11.65;6.95;;;;;;;9.11;69.72;99632.91;5109521;28;20048;-74
2022/12/25 09:21:15;;;;;;;9.07;6.00;;;;;;;9.11;69.65;99630.25;5109828;28;20048;-73
2022/12/25 09:23:42;;;;;;;10.57;5.75;;;;;;;9.10;69.34;99636.47;5109394;28;20047;-74
2022/12/25 09:26:12;;;;;;;7.85;6.00;;;;;;;9.14;69.29;99639.84;5109402;28;20048;-74
2022/12/25 09:28:39;;;;;;;11.77;7.05;;;;;;;9.19;69.29;99637.84;5109395;28;20044;-74
2022/12/25 09:31:07;;;;;;;7.68;6.50;;;;;;;9.24;69.07;99643.81;5108964;28;20093;-74
2022/12/25 09:33:35;;;;;;;9.65;6.50;;;;;;;9.27;68.95;99647.19;5109265;28;20052;-74
2022/12/25 09:36:04;;;;;;;11.75;8.38;;;;;;;9.17;68.95;99616.75;5108613;28;20047;-74
2022/12/25 09:38:31;;;;;;;13.52;10.52;;;;;;;9.38;68.90;99643.19;5109314;28;20070;-74
2022/12/25 09:41:00;;;;;;;13.75;9.02;;;;;;;9.37;68.48;99641.47;5108859;28;20089;-74
2022/12/25 09:43:30;;;;;;;10.68;7.65;;;;;;;8.62;68.47;99523.22;5109152;28;20292;-74
2022/12/25 09:45:58;;;;;;;12.15;6.90;;;;;;;9.36;68.22;99640.63;5109078;28;20235;-74
2022/12/25 09:48:31;;;;;;;9.75;6.35;;;;;;;9.38;68.53;99652.00;5108729;28;20050;-74
2022/12/25 09:51:07;;;;;;;11.15;5.95;;;;;;;9.39;68.33;99648.41;5108707;28;20040;-74
2022/12/25 09:53:38;;;;;;;10.35;7.00;;;;;;;9.41;68.48;99649.22;5107769;28;20040;-74
2022/12/25 09:56:10;;;;;;;10.23;6.78;;;;;;;9.41;68.26;99649.22;5108637;28;20299;-74
2022/12/25 09:58:38;;;;;;;9.20;5.95;;;;;;;9.45;68.23;99642.88;5108412;28;20187;-74
2022/12/25 10:01:15;;;;;;;11.90;6.40;;;;;;;9.48;67.89;99641.88;5107326;28;20097;-74
2022/12/25 10:03:55;;;;;;;8.85;6.05;;;;;;;9.28;67.56;99611.88;5107622;28;20058;-74
2022/12/25 10:06:30;;;;;;;8.38;5.90;;;;;;;9.47;67.45;99640.16;5107677;28;20040;-74
2022/12/25 10:09:08;;;;;;;;;;;;;;;9.41;65.93;99643.94;5108844;28;20047;-73
2022/12/25 10:11:49;;;;;;;6.82;5.13;;;;;;;9.38;66.37;99637.91;5108664;28;19930;-74
2022/12/25 10:14:26;;;;;;;13.00;5.95;;;;;;;9.44;66.68;99641.16;5107578;28;20296;-74
2022/12/25 10:17:08;;;;;;;7.75;4.60;;;;;;;9.48;65.99;99634.78;5107889;28;20040;-74
2022/12/25 10:19:44;;;;;;;6.22;4.72;;;;;;;9.54;66.19;99625.72;5108240;28;20043;-74
2022/12/25 10:22:22;;;;;;;8.30;5.45;;;;;;;9.58;65.94;99630.78;5107311;28;20044;-74
2022/12/25 10:24:51;;;;;;;8.90;5.10;;;;;;;9.65;66.20;99620.78;5108433;28;20066;-74
2022/12/25 10:27:20;;;;;;;8.65;5.28;;;;;;;9.69;66.05;99619.72;5107549;28;20066;-74
2022/12/25 10:29:53;;;;;;;7.50;4.82;;;;;;;9.73;65.85;99615.13;5108333;28;20047;-74
2022/12/25 10:32:20;;;;;;;10.82;6.10;;;;;;;9.77;65.69;99616.69;5107075;28;20059;-74
2022/12/25 10:34:47;;;;;;;12.07;6.88;;;;;;;9.83;65.74;99622.56;5107938;28;20238;-75
2022/12/25 10:37:16;;;;;;;10.63;5.97;;;;;;;9.85;65.16;99618.03;5108359;28;20066;-74
2022/12/25 10:39:44;;;;;;;10.20;5.70;;;;;;;9.91;65.11;99615.09;5106903;28;20036;-74
2022/12/25 10:42:26;;;;;;;8.80;5.78;;;;;;;8.55;63.67;99374.72;5107602;28;20040;-74
2022/12/25 10:44:55;;;;;;;8.25;6.00;;;;;;;10.23;64.58;99604.72;5107983;28;20032;-74
2022/12/25 10:47:24;;;;;;;8.40;5.10;;;;;;;10.43;64.22;99604.56;5107600;28;20040;-74
2022/12/25 10:49:51;;;;;;;14.55;5.95;;;;;;;10.62;63.33;99601.00;5089881;28;20036;-74
2022/12/25 10:52:22;;;;;;;7.45;5.15;;;;;;;10.69;62.84;99582.03;5107786;28;20109;-74
2022/12/25 10:54:49;;;;;;;8.43;4.78;;;;;;;10.92;62.68;99594.13;5107745;28;20208;-75
2022/12/25 10:57:18;;;;;;;8.43;5.78;;;;;;;10.64;62.04;99535.50;5106548;28;20359;-75
2022/12/25 10:59:46;;;;;;;10.20;5.30;;;;;;;11.25;61.60;99586.16;5106956;28;20089;-74
2022/12/25 11:02:25;;;;;;;9.23;5.35;;;;;;;11.38;60.06;99581.03;5106446;28;20039;-75
2022/12/25 11:05:00;;;;;;;15.88;5.38;;;;;;;11.50;60.36;99583.03;5107188;28;20311;-75
2022/12/25 11:07:28;;;;;;;8.75;4.80;;;;;;;11.62;59.76;99579.69;5107572;28;20067;-75
2022/12/25 11:09:58;;;;;;;8.60;5.28;;;;;;;11.74;59.81;99576.34;5107160;28;20043;-75
2022/12/25 11:12:31;;;;;;;8.00;4.72;;;;;;;11.81;58.40;99564.44;5089562;28;20066;-75
2022/12/25 11:15:01;;;;;;;8.68;4.47;;;;;;;11.68;59.44;99528.91;5106047;28;20123;-74
2022/12/25 11:17:28;;;;;;;6.88;4.60;;;;;;;11.86;59.52;99562.38;5106936;28;20101;-74
2022/12/25 11:19:57;;;;;;;7.15;4.15;;;;;;;11.86;59.56;99565.03;5106037;28;20032;-74
2022/12/25 11:22:24;;;;;;;6.85;4.88;;;;;;;11.91;59.44;99558.59;5107220;28;20181;-74
2022/12/25 11:24:53;;;;;;;6.20;4.20;;;;;;;11.94;58.96;99555.75;5107058;28;20111;-74
2022/12/25 11:27:26;;;;;;;5.43;4.40;;;;;;;11.86;57.82;99522.53;5106160;28;20040;-74
2022/12/25 11:29:57;;;;;;;7.32;4.70;;;;;;;12.13;57.81;99546.66;5105917;28;20296;-75
2022/12/25 11:32:34;;;;;;;6.07;4.07;;;;;;;12.23;57.16;99546.16;5105569;28;20054;-74
2022/12/25 11:35:02;;;;;;;7.45;4.28;;;;;;;12.31;58.28;99541.25;5106573;28;20054;-74
2022/12/25 11:37:35;;;;;;;7.18;3.88;;;;;;;11.75;57.37;99439.13;5105654;28;20323;-74
2022/12/25 11:40:05;;;;;;;9.27;4.45;;;;;;;12.52;57.94;99539.97;5106804;28;20059;-74
2022/12/25 11:42:36;;;;;;;8.15;4.57;;;;;;;12.37;57.56;99495.69;5106631;28;20044;-74
2022/12/25 11:45:08;;;;;;;8.88;4.45;;;;;;;12.60;57.29;99529.72;5106342;28;20190;-73
2022/12/25 11:47:40;;;;;;;7.50;3.85;;;;;;;12.45;57.83;99512.03;5106648;28;20111;-73
2022/12/25 11:50:22;;;;;;;6.88;3.97;;;;;;;12.46;56.33;99495.16;5106814;28;20063;-74
2022/12/25 11:52:50;;;;;;;7.55;3.97;;;;;;;12.71;57.55;99518.44;5106854;28;20043;-73
2022/12/25 11:55:25;;;;;;;6.72;4.05;;;;;;;12.73;56.03;99506.75;5106207;28;20107;-74
2022/12/25 11:57:57;;;;;;;6.60;4.32;;;;;;;12.80;56.27;99504.56;5105324;28;20085;-73
2022/12/25 12:00:24;;;;;;;6.70;3.88;;;;;;;12.87;57.48;99503.25;5106348;28;20301;-74
2022/12/25 12:02:57;;;;;;;12.32;4.68;;;;;;;12.88;56.76;99499.63;5105217;28;20043;-73
2022/12/25 12:05:29;;;;;;;5.60;3.55;;;;;;;12.75;56.71;99466.78;5105375;28;20097;-74
2022/12/25 12:08:00;;;;;;;6.88;3.60;;;;;;;13.03;55.51;99505.78;5105858;28;20077;-74
2022/12/25 12:10:54;;;;;;;4.32;3.10;;;;;;;13.11;53.89;99508.84;5105871;28;20044;-73
2022/12/25 12:13:34;;;;;;;5.30;3.63;;;;;;;12.92;53.51;99465.72;5106529;28;20051;-74
2022/12/25 12:16:02;;;;;;;5.25;2.60;;;;;;;13.16;56.34;99488.09;5105176;28;20118;-74
2022/12/25 12:18:31;;;;;;;5.57;3.05;;;;;;;12.54;55.75;99377.72;5105671;28;20040;-74
2022/12/25 12:21:04;;;;;;;5.38;2.75;;;;;;;13.26;55.10;99485.72;5106215;28;20196;-74
2022/12/25 12:23:35;;;;;;;6.22;3.03;;;;;;;12.92;54.97;99412.50;5105852;28;20097;-74
2022/12/25 12:26:04;;;;;;;7.07;4.40;;;;;;;13.34;55.21;99459.47;5105785;28;20032;-74
2022/12/25 12:28:42;;;;;;;5.65;3.30;;;;;;;13.45;53.42;99471.16;5105457;28;20065;-74
2022/12/25 12:31:09;;;;;;;5.70;3.58;;;;;;;13.48;55.55;99476.28;5104656;28;20173;-74
2022/12/25 12:33:41;;;;;;;4.82;2.95;;;;;;;13.46;54.89;99475.50;5104724;28;20043;-74
2022/12/25 12:36:13;;;;;;;5.57;3.78;;;;;;;13.14;54.37;99427.00;5105433;28;20051;-73
2022/12/25 12:38:42;;;;;;;4.78;3.15;;;;;;;13.50;55.10;99470.84;5105776;28;20036;-73
2022/12/25 12:41:14;;;;;;;6.05;3.15;;;;;;;12.84;53.94;99370.44;5104569;28;20043;-73
2022/12/25 12:43:44;;;;;;;7.68;6.05;;;;;;;13.50;54.89;99475.31;5105285;28;20048;-73
2022/12/25 12:46:18;;;;;;;14.38;8.80;;;;;;;13.51;53.20;99469.03;5105588;28;20040;-73
2022/12/25 12:48:46;;;;;;;11.20;5.40;;;;;;;13.52;54.83;99470.75;5105049;28;20043;-73
2022/12/25 12:51:14;;;;;;;6.28;3.90;;;;;;;13.50;54.91;99470.00;5104262;28;20078;-74
2022/12/25 12:53:42;;;;;;;5.85;4.50;;;;;;;13.29;54.74;99446.44;5105754;28;20054;-74
2022/12/25 12:56:17;;;;;;;8.88;5.25;;;;;;;13.45;53.29;99475.63;5105338;28;20169;-74
2022/12/25 12:58:48;;;;;;;5.28;3.53;;;;;;;12.72;54.67;99372.09;5105089;28;20090;-73
2022/12/25 13:01:45;;;;;;;6.07;3.72;;;;;;;13.33;52.92;99468.41;5105237;28;20051;-73
2022/12/25 13:04:41;;;;;;;5.85;3.33;;;;;;;13.28;53.65;99460.72;5105093;28;20074;-73
2022/12/25 13:07:17;;;;;;;5.07;3.95;;;;;;;13.22;55.12;99463.75;5103063;28;20048;-73
2022/12/25 13:10:02;;;;;;;6.93;3.85;;;;;;;13.24;53.84;99451.22;5104101;28;20040;-73
2022/12/25 13:12:30;;;;;;;;;;;;;;;13.08;53.20;99450.47;5105980;28;20052;-74
2022/12/25 13:14:58;;;;;;;6.35;4.75;;;;;;;13.01;56.06;99452.69;5104869;28;20123;-73
2022/12/25 13:17:27;;;;;;;6.57;4.45;;;;;;;12.98;56.54;99444.91;5104293;28;20040;-74
2022/12/25 13:19:57;;;;;;;17.45;11.18;;;;;;;12.95;55.75;99441.56;5105287;28;20048;-73
2022/12/25 13:22:25;;;;;;;7.38;5.63;;;;;;;12.89;56.61;99429.53;5104236;28;20036;-73
2022/12/25 13:24:57;;;;;;;8.88;5.35;;;;;;;12.83;56.04;99435.22;5104074;28;20040;-72
2022/12/25 13:27:26;;;;;;;7.57;5.20;;;;;;;12.80;56.72;99422.13;5104104;28;20382;-73
2022/12/25 13:29:54;;;;;;;7.63;5.53;;;;;;;12.78;57.24;99421.38;5104834;28;20039;-73
2022/12/25 13:32:24;;;;;;;9.15;6.95;;;;;;;12.80;56.50;99427.44;5104698;28;20090;-73
2022/12/25 13:34:52;;;;;;;8.73;6.60;;;;;;;12.73;57.31;99431.44;5105112;28;20048;-73